Time;durP1;ratioP1;P1;durP2;ratioP2;P2;SDS_P1;SDS_P2;PMS_P1;PMS_P2;Temp;Humidity;BMP_temperature;BMP_pressure;BME280_temperature;BME280_humidity;BME280_pressure;Samples;Min_cycle;Max_cycle;Signal;HPM_P1;HPM_P2
2022/01/16 00:00:36;;;;;;;71.70;38.60;;;;;;;-1.98;100.00;98945.03;5056220;28;20048;-72
2022/01/16 00:05:46;;;;;;;79.25;39.45;;;;;;;-2.01;100.00;98956.13;5059942;28;20086;-72
2022/01/16 00:08:12;;;;;;;72.53;37.22;;;;;;;-1.92;100.00;98976.41;5068860;28;20028;-72
2022/01/16 00:10:37;;;;;;;76.25;37.13;;;;;;;-1.89;100.00;98927.78;5073148;28;20481;-72
2022/01/16 00:13:02;;;;;;;75.68;37.55;;;;;;;-1.90;100.00;98883.22;5072974;28;20017;-72
2022/01/16 00:15:28;;;;;;;75.60;37.38;;;;;;;-1.94;100.00;98906.09;5073108;28;20370;-71
2022/01/16 00:18:09;;;;;;;71.53;37.67;;;;;;;-1.94;100.00;98916.81;5073045;28;20067;-72
2022/01/16 00:20:35;;;;;;;79.85;38.33;;;;;;;-2.03;100.00;98913.41;5073385;28;20024;-73
2022/01/16 00:23:03;;;;;;;77.90;37.78;;;;;;;-2.00;100.00;98917.56;5071920;28;20032;-73
2022/01/16 00:25:29;;;;;;;70.20;38.10;;;;;;;-2.03;100.00;98939.38;5071300;28;20020;-71
2022/01/16 00:27:54;;;;;;;80.63;37.08;;;;;;;-2.11;100.00;98888.59;5073000;28;20543;-72
2022/01/16 00:30:19;;;;;;;71.97;37.00;;;;;;;-2.08;100.00;98894.41;5072716;28;20021;-72
2022/01/16 00:32:46;;;;;;;76.63;39.50;;;;;;;-2.12;100.00;98892.28;5068486;28;20112;-71
2022/01/16 00:35:12;;;;;;;71.35;37.92;;;;;;;-2.18;100.00;98909.97;5052676;28;20128;-71
2022/01/16 00:37:41;;;;;;;69.97;35.85;;;;;;;-2.15;100.00;98901.56;5051271;28;20025;-73
2022/01/16 00:40:09;;;;;;;72.82;38.00;;;;;;;-2.23;100.00;98929.31;5052456;28;20120;-74
2022/01/16 00:42:34;;;;;;;69.82;35.80;;;;;;;-2.26;100.00;98902.91;5051282;28;20102;-71
2022/01/16 00:45:00;;;;;;;76.32;37.20;;;;;;;-2.28;100.00;98855.88;5052445;28;20020;-73
2022/01/16 00:47:25;;;;;;;71.10;37.08;;;;;;;-2.35;100.00;98884.47;5052389;28;20543;-71
2022/01/16 00:49:50;;;;;;;72.78;38.53;;;;;;;-2.37;100.00;98906.06;5053235;28;20071;-72
2022/01/16 00:52:16;;;;;;;72.28;37.00;;;;;;;-2.34;100.00;98896.81;5052716;28;20020;-72
2022/01/16 00:54:41;;;;;;;73.50;36.63;;;;;;;-2.29;100.00;98922.00;5051576;28;20482;-72
2022/01/16 00:57:07;;;;;;;72.47;35.42;;;;;;;-2.30;100.00;98940.97;5053330;28;20028;-71
2022/01/16 00:59:32;;;;;;;72.68;35.10;;;;;;;-2.28;100.00;98936.25;5052659;28;20029;-72
2022/01/16 01:01:59;;;;;;;71.50;36.63;;;;;;;-2.30;100.00;98925.72;5052192;28;20021;-71
2022/01/16 01:04:24;;;;;;;86.18;39.92;;;;;;;-2.36;100.00;98931.00;5052241;28;20489;-70
2022/01/16 01:06:51;;;;;;;73.38;36.53;;;;;;;-2.42;100.00;98848.75;5052210;28;20064;-71
2022/01/16 01:09:17;;;;;;;76.60;37.80;;;;;;;-2.67;100.00;98818.84;5052112;28;20037;-70
2022/01/16 01:11:45;;;;;;;78.82;37.75;;;;;;;-2.70;100.00;98837.94;5052085;28;20032;-70
2022/01/16 01:14:38;;;;;;;78.57;37.80;;;;;;;-2.73;100.00;98835.66;5052097;28;20032;-71
2022/01/16 01:17:07;;;;;;;72.00;36.75;;;;;;;-2.75;100.00;98822.44;5052211;28;20032;-71
2022/01/16 01:19:34;;;;;;;74.75;37.20;;;;;;;-2.67;100.00;98844.78;5052643;28;20025;-70
2022/01/16 01:22:00;;;;;;;80.03;38.85;;;;;;;-2.65;100.00;98882.88;5052137;28;20033;-71
2022/01/16 01:24:27;;;;;;;76.63;38.10;;;;;;;-2.65;100.00;98907.81;5051579;28;20025;-71
2022/01/16 01:27:09;;;;;;;73.53;36.50;;;;;;;-2.60;100.00;98936.72;5050149;28;20025;-71
2022/01/16 01:29:35;;;;;;;75.55;37.85;;;;;;;-2.55;100.00;98934.28;5053000;28;20025;-71
2022/01/16 01:32:01;;;;;;;77.75;38.65;;;;;;;-2.56;100.00;98922.75;5054325;28;20087;-72
2022/01/16 01:34:28;;;;;;;71.95;35.53;;;;;;;-2.56;100.00;98922.75;5051252;28;20021;-71
2022/01/16 01:36:53;;;;;;;73.78;37.50;;;;;;;-2.67;100.00;98931.25;5051136;28;20033;-71
2022/01/16 01:39:20;;;;;;;73.50;37.35;;;;;;;-2.65;100.00;98918.50;5051824;28;20025;-71
2022/01/16 01:41:49;;;;;;;69.18;36.13;;;;;;;-2.54;100.00;98907.34;5050055;28;20492;-71
2022/01/16 01:52:26;;;;;;;81.07;41.22;;;;;;;-2.80;100.00;98905.16;5051725;28;20082;-71
2022/01/16 01:54:52;;;;;;;71.53;37.00;;;;;;;-2.83;100.00;98902.03;5051564;28;20053;-72
2022/01/16 01:57:18;;;;;;;72.10;36.70;;;;;;;-2.83;100.00;98915.41;5050339;28;20053;-71
2022/01/16 01:59:43;;;;;;;70.55;37.67;;;;;;;-2.86;100.00;98910.44;5050169;28;20068;-71
2022/01/16 02:02:09;;;;;;;71.18;35.88;;;;;;;-2.84;100.00;98909.22;5051387;28;20032;-71
2022/01/16 02:04:34;;;;;;;67.57;35.80;;;;;;;-2.77;100.00;98903.97;5049881;28;20037;-71
2022/01/16 02:07:00;;;;;;;72.50;37.10;;;;;;;-2.90;100.00;98914.50;5049983;28;20124;-71
2022/01/16 02:09:26;;;;;;;66.75;36.08;;;;;;;-2.83;100.00;98912.72;5050054;28;20059;-71
2022/01/16 02:11:52;;;;;;;65.20;34.42;;;;;;;-2.80;100.00;98923.06;5051302;28;20028;-71
2022/01/16 02:28:08;;;;;;;81.07;40.88;;;;;;;-3.10;100.00;98870.59;5050813;28;20035;-71
2022/01/16 02:33:24;;;;;;;82.32;40.42;;;;;;;-2.91;100.00;98853.94;5051023;28;20024;-70
2022/01/16 02:35:52;;;;;;;89.00;41.10;;;;;;;-2.95;100.00;98839.31;5050548;28;20040;-72
2022/01/16 02:38:17;;;;;;;89.00;42.40;;;;;;;-3.00;100.00;98847.03;5050729;28;20029;-71
2022/01/16 02:41:01;;;;;;;111.65;46.92;;;;;;;-2.91;100.00;98837.88;5050691;28;20367;-71
2022/01/16 02:43:32;;;;;;;104.78;49.15;;;;;;;-2.90;100.00;98828.84;5049531;28;20468;-71
2022/01/16 02:46:36;;;;;;;128.13;53.03;;;;;;;-2.95;100.00;98828.59;5050412;28;20025;-71
2022/01/16 02:48:54;;;;;;;125.65;52.83;;;;;;;-3.09;100.00;98824.94;5050498;28;20033;-71
2022/01/16 02:51:23;;;;;;;132.25;53.63;;;;;;;-3.07;100.00;98825.56;5051092;28;20036;-72
2022/01/16 02:53:50;;;;;;;194.20;59.80;;;;;;;-3.11;100.00;98815.44;5049392;28;20033;-71
2022/01/16 02:56:17;;;;;;;142.40;52.72;;;;;;;-3.04;100.00;98821.72;5049047;28;20051;-72
2022/01/16 02:58:45;;;;;;;186.93;56.10;;;;;;;-3.09;100.00;98826.78;5050287;28;20049;-72
2022/01/16 03:01:11;;;;;;;156.27;53.25;;;;;;;-3.07;100.00;98838.13;5050619;28;20029;-72
2022/01/16 03:03:36;;;;;;;216.45;56.05;;;;;;;-3.06;100.00;98832.59;5050482;28;20027;-71
2022/01/16 03:06:02;;;;;;;148.43;54.05;;;;;;;-3.05;100.00;98828.06;5050371;28;20079;-72
2022/01/16 03:08:27;;;;;;;144.70;54.25;;;;;;;-2.95;100.00;98826.75;5050925;28;20400;-72
2022/01/16 03:11:15;;;;;;;171.85;57.95;;;;;;;-3.02;100.00;98814.31;5051192;28;20517;-72
2022/01/16 03:13:48;;;;;;;192.55;54.78;;;;;;;-2.96;100.00;98814.38;5049428;28;20029;-71
2022/01/16 03:16:16;;;;;;;226.13;58.15;;;;;;;-2.97;100.00;98831.44;5049606;28;20097;-72
2022/01/16 03:21:54;;;;;;;177.10;52.97;;;;;;;-2.86;100.00;98830.97;5047756;28;20137;-71
2022/01/16 03:24:46;;;;;;;274.45;59.85;;;;;;;-2.78;100.00;98822.00;5049634;28;20120;-71
2022/01/16 03:27:18;;;;;;;196.60;52.45;;;;;;;-2.67;100.00;98821.50;5047959;28;20064;-71
2022/01/16 03:29:49;;;;;;;183.32;52.15;;;;;;;-2.70;100.00;98808.50;5048787;28;20073;-71
2022/01/16 03:32:17;;;;;;;132.13;48.83;;;;;;;-2.63;100.00;98820.09;5050451;28;20390;-71
2022/01/16 03:34:43;;;;;;;186.00;51.45;;;;;;;-2.53;100.00;98811.75;5051272;28;20029;-72
2022/01/16 03:37:09;;;;;;;138.95;49.95;;;;;;;-2.55;100.00;98805.75;5052606;28;20083;-71
2022/01/16 03:39:35;;;;;;;117.38;49.42;;;;;;;-2.52;100.00;98806.22;5050161;28;20025;-71
2022/01/16 03:42:01;;;;;;;148.27;48.45;;;;;;;-2.44;100.00;98800.72;5050195;28;20025;-73
2022/01/16 03:44:27;;;;;;;167.30;46.17;;;;;;;-2.45;100.00;98801.75;5048779;28;20374;-72
2022/01/16 03:46:53;;;;;;;142.20;43.83;;;;;;;-2.47;100.00;98808.31;5035315;28;20036;-72
2022/01/16 03:49:25;;;;;;;206.75;40.70;;;;;;;-2.46;100.00;98800.09;5049798;28;20025;-71
2022/01/16 03:51:53;;;;;;;208.57;42.88;;;;;;;-2.39;100.00;98798.31;5040503;28;20403;-71
2022/01/16 03:54:21;;;;;;;355.55;50.90;;;;;;;-2.44;100.00;98800.72;5029628;28;20406;-72
2022/01/16 03:56:48;;;;;;;158.38;42.38;;;;;;;-2.43;100.00;98798.88;5029717;28;20041;-72
2022/01/16 03:59:14;;;;;;;122.18;40.50;;;;;;;-2.45;100.00;98791.06;5031844;28;20068;-72
2022/01/16 04:01:40;;;;;;;122.80;41.92;;;;;;;-2.51;100.00;98796.34;5032168;28;20061;-72
2022/01/16 04:04:07;;;;;;;219.93;46.22;;;;;;;-2.57;100.00;98791.75;5043680;28;20079;-72
2022/01/16 04:06:33;;;;;;;161.85;43.22;;;;;;;-2.53;100.00;98785.81;5053293;28;20028;-71
2022/01/16 04:08:59;;;;;;;218.35;48.25;;;;;;;-2.59;100.00;98791.09;5051982;28;20496;-71
2022/01/16 04:11:27;;;;;;;163.25;44.25;;;;;;;-2.56;100.00;98786.19;5053319;28;20029;-71
2022/01/16 04:14:03;;;;;;;193.90;43.80;;;;;;;-2.51;100.00;98775.75;5053187;28;20010;-72
2022/01/16 04:16:29;;;;;;;197.23;44.55;;;;;;;-2.51;100.00;98772.25;5053035;28;20033;-72
2022/01/16 04:18:55;;;;;;;317.13;50.22;;;;;;;-2.56;100.00;98771.97;5053021;28;20508;-72
2022/01/16 04:21:23;;;;;;;175.85;45.50;;;;;;;-2.53;100.00;98772.41;5053419;28;20028;-72
2022/01/16 04:23:50;;;;;;;320.95;52.53;;;;;;;-2.52;100.00;98770.56;5052937;28;20441;-71
2022/01/16 04:26:17;;;;;;;181.95;43.75;;;;;;;-2.40;100.00;98779.75;5052758;28;20047;-73
2022/01/16 04:28:43;;;;;;;359.05;54.65;;;;;;;-2.44;100.00;98768.59;5052822;28;20017;-71
2022/01/16 04:31:09;;;;;;;197.50;47.42;;;;;;;-2.53;100.00;98760.88;5052781;28;20035;-72
2022/01/16 04:33:35;;;;;;;158.45;46.08;;;;;;;-2.44;100.00;98759.72;5052750;28;20762;-71
2022/01/16 04:36:01;;;;;;;194.18;47.85;;;;;;;-2.47;100.00;98758.25;5052637;28;20474;-71
2022/01/16 04:38:26;;;;;;;194.07;48.65;;;;;;;-2.53;100.00;98759.03;5052716;28;20039;-71
2022/01/16 04:43:48;;;;;;;330.23;56.00;;;;;;;-2.58;100.00;98753.44;5032304;28;20094;-71
2022/01/16 04:46:15;;;;;;;187.93;51.78;;;;;;;-2.48;100.00;98747.75;5032538;28;20372;-71
2022/01/16 04:48:41;;;;;;;180.82;50.08;;;;;;;-2.38;100.00;98746.38;5030951;28;20029;-71
2022/01/16 04:51:06;;;;;;;224.02;47.33;;;;;;;-2.36;100.00;98744.38;5031386;28;20525;-71
2022/01/16 04:53:31;;;;;;;167.50;45.63;;;;;;;-2.31;100.00;98741.91;5032215;28;20615;-70
2022/01/16 04:55:57;;;;;;;257.10;44.08;;;;;;;-2.36;100.00;98736.34;5032070;28;20077;-71
2022/01/16 04:58:22;;;;;;;220.38;47.22;;;;;;;-2.49;100.00;98741.56;5032363;28;20391;-71
2022/01/16 05:00:48;;;;;;;339.42;57.00;;;;;;;-2.49;100.00;98735.38;5033247;28;20014;-71
2022/01/16 05:03:14;;;;;;;169.77;49.42;;;;;;;-2.41;100.00;98737.94;5030890;28;20067;-72
2022/01/16 05:05:39;;;;;;;359.30;55.38;;;;;;;-2.45;100.00;98732.13;5031746;28;20013;-73
2022/01/16 05:08:05;;;;;;;212.80;44.40;;;;;;;-2.53;100.00;98736.78;5031653;28;20071;-71
2022/01/16 05:10:31;;;;;;;400.50;51.78;;;;;;;-2.64;100.00;98732.78;5032067;28;20031;-72
2022/01/16 05:13:15;;;;;;;201.45;49.60;;;;;;;-2.68;100.00;98719.97;5031348;28;20048;-71
2022/01/16 05:18:24;;;;;;;385.52;65.32;;;;;;;-2.64;100.00;98722.09;5031583;28;20039;-73
2022/01/16 05:20:49;;;;;;;225.20;55.50;;;;;;;-2.61;100.00;98732.41;5031892;28;20029;-72
2022/01/16 05:23:14;;;;;;;199.90;53.70;;;;;;;-2.63;100.00;98722.91;5031844;28;20037;-73
2022/01/16 05:25:40;;;;;;;178.77;49.92;;;;;;;-2.47;100.00;98727.97;5031227;28;20028;-71
2022/01/16 05:28:05;;;;;;;141.95;49.35;;;;;;;-2.36;100.00;98722.94;5031315;28;20466;-72
2022/01/16 05:30:31;;;;;;;220.77;51.70;;;;;;;-2.39;100.00;98726.00;5031336;28;20108;-72
2022/01/16 05:32:56;;;;;;;159.35;47.72;;;;;;;-2.37;100.00;98723.94;5030902;28;20493;-71
2022/01/16 05:35:22;;;;;;;154.65;47.25;;;;;;;-2.31;100.00;98720.50;5031109;28;20025;-71
2022/01/16 05:37:47;;;;;;;161.60;45.42;;;;;;;-2.26;100.00;98726.13;5031045;28;20029;-71
2022/01/16 05:40:12;;;;;;;212.10;48.75;;;;;;;-2.41;100.00;98721.88;5032245;28;20021;-71
2022/01/16 05:42:38;;;;;;;288.73;51.40;;;;;;;-2.38;100.00;98727.63;5035124;28;20021;-70
2022/01/16 05:45:04;;;;;;;249.55;53.17;;;;;;;-2.39;100.00;98730.53;5032048;28;20038;-72
2022/01/16 05:47:29;;;;;;;184.77;48.72;;;;;;;-2.31;100.00;98728.53;5030397;28;20414;-71
2022/01/16 05:49:54;;;;;;;353.02;54.00;;;;;;;-2.37;100.00;98721.28;5031658;28;20105;-72
2022/01/16 05:52:20;;;;;;;153.32;44.28;;;;;;;-2.33;100.00;98722.56;5032066;28;20434;-71
2022/01/16 05:54:45;;;;;;;216.65;49.75;;;;;;;-2.29;100.00;98721.13;5031533;28;20046;-71
2022/01/16 05:57:12;;;;;;;251.05;49.40;;;;;;;-2.25;100.00;98717.03;5031559;28;20546;-71
2022/01/16 05:59:37;;;;;;;239.15;48.83;;;;;;;-2.34;100.00;98726.25;5031705;28;20026;-73
2022/01/16 06:02:03;;;;;;;221.65;48.80;;;;;;;-2.36;100.00;98725.63;5031709;28;20113;-71
2022/01/16 06:04:29;;;;;;;177.93;45.70;;;;;;;-2.29;100.00;98733.72;5030232;28;20032;-72
2022/01/16 06:06:54;;;;;;;227.13;47.72;;;;;;;-2.30;100.00;98730.19;5030131;28;20029;-71
2022/01/16 06:09:19;;;;;;;148.18;44.15;;;;;;;-2.25;100.00;98738.47;5031037;28;20478;-71
2022/01/16 06:11:45;;;;;;;142.02;46.05;;;;;;;-2.28;100.00;98733.50;5031365;28;20018;-72
2022/01/16 06:14:10;;;;;;;176.90;45.13;;;;;;;-2.45;100.00;98732.13;5031224;28;20029;-72
2022/01/16 06:16:36;;;;;;;204.57;43.55;;;;;;;-2.57;100.00;98738.22;5031264;28;20033;-71
2022/01/16 06:19:01;;;;;;;148.48;43.65;;;;;;;-2.54;100.00;98738.66;5031231;28;20419;-72
2022/01/16 06:21:27;;;;;;;161.48;44.65;;;;;;;-2.49;100.00;98740.75;5030958;28;20037;-72
2022/01/16 06:23:52;;;;;;;251.15;47.13;;;;;;;-2.44;100.00;98740.97;5031228;28;20057;-73
2022/01/16 06:26:17;;;;;;;182.25;41.22;;;;;;;-2.46;100.00;98741.19;5031100;28;20482;-71
2022/01/16 06:28:43;;;;;;;151.85;43.08;;;;;;;-2.40;100.00;98756.47;5031054;28;20030;-71
2022/01/16 06:31:08;;;;;;;174.27;38.95;;;;;;;-2.45;100.00;98742.00;5031046;28;20056;-72
2022/01/16 06:33:33;;;;;;;153.45;38.63;;;;;;;-2.50;100.00;98747.94;5030765;28;20036;-71
2022/01/16 06:36:01;;;;;;;127.30;37.83;;;;;;;-2.42;100.00;98742.47;5031107;28;20540;-71
2022/01/16 06:38:27;;;;;;;110.53;38.63;;;;;;;-2.36;100.00;98744.38;5030685;28;20383;-72
2022/01/16 06:40:52;;;;;;;172.88;46.30;;;;;;;-2.30;100.00;98746.25;5030794;28;20041;-71
2022/01/16 06:43:17;;;;;;;117.97;43.17;;;;;;;-2.25;100.00;98738.47;5030785;28;20017;-72
2022/01/16 06:45:43;;;;;;;148.35;50.50;;;;;;;-2.20;100.00;98744.09;5030907;28;20037;-72
2022/01/16 06:48:08;;;;;;;222.00;47.33;;;;;;;-2.33;100.00;98740.47;5030767;28;20036;-71
2022/01/16 06:50:34;;;;;;;139.60;43.35;;;;;;;-2.33;100.00;98735.94;5031048;28;20112;-72
2022/01/16 06:52:59;;;;;;;165.32;47.38;;;;;;;-2.29;100.00;98742.53;5031017;28;20038;-70
2022/01/16 06:55:24;;;;;;;131.30;44.13;;;;;;;-2.30;100.00;98751.63;5030754;28;20049;-72
2022/01/16 06:57:50;;;;;;;200.60;45.83;;;;;;;-2.33;100.00;98752.00;5030966;28;20120;-72
2022/01/16 07:00:15;;;;;;;104.60;41.30;;;;;;;-2.31;100.00;98749.94;5030681;28;20032;-72
2022/01/16 07:02:41;;;;;;;129.60;39.88;;;;;;;-2.22;100.00;98764.03;5030588;28;20466;-72
2022/01/16 07:05:06;;;;;;;173.77;42.65;;;;;;;-2.33;100.00;98761.88;5030712;28;20417;-72
2022/01/16 07:07:32;;;;;;;161.85;44.92;;;;;;;-2.36;100.00;98759.59;5029142;28;20022;-72
2022/01/16 07:09:57;;;;;;;131.93;41.03;;;;;;;-2.21;100.00;98755.81;5030602;28;20094;-71
2022/01/16 07:12:23;;;;;;;235.45;43.47;;;;;;;-2.35;100.00;98743.31;5029319;28;20029;-72
2022/01/16 07:14:48;;;;;;;154.50;40.45;;;;;;;-2.30;100.00;98761.50;5030530;28;20033;-71
2022/01/16 07:17:14;;;;;;;107.78;43.88;;;;;;;-2.30;100.00;98762.34;5030183;28;20048;-71
2022/01/16 07:19:39;;;;;;;111.63;43.10;;;;;;;-2.15;100.00;98764.91;5029939;28;20045;-70
2022/01/16 07:22:05;;;;;;;107.00;43.45;;;;;;;-2.14;100.00;98771.09;5037725;28;20017;-71
2022/01/16 07:24:31;;;;;;;105.45;41.05;;;;;;;-2.12;100.00;98774.41;5050105;28;20056;-72
2022/01/16 07:26:58;;;;;;;145.27;43.15;;;;;;;-2.09;100.00;98774.84;5037704;28;20061;-74
2022/01/16 07:29:23;;;;;;;104.35;39.63;;;;;;;-2.01;100.00;98776.56;5029427;28;20540;-72
2022/01/16 07:31:49;;;;;;;126.15;40.53;;;;;;;-1.89;100.00;98781.19;5030389;28;20049;-72
2022/01/16 07:34:14;;;;;;;239.35;44.28;;;;;;;-1.94;100.00;98786.28;5034855;28;20013;-72
2022/01/16 07:36:40;;;;;;;93.53;39.38;;;;;;;-1.93;100.00;98784.44;5033975;28;20026;-71
2022/01/16 07:39:05;;;;;;;111.55;39.78;;;;;;;-1.97;100.00;98778.66;5045855;28;20108;-72
2022/01/16 07:41:31;;;;;;;109.72;38.83;;;;;;;-2.01;100.00;98779.25;5052429;28;20025;-72
2022/01/16 07:43:56;;;;;;;105.40;42.10;;;;;;;-2.03;100.00;98778.59;5054139;28;20492;-72
2022/01/16 07:46:22;;;;;;;121.57;41.25;;;;;;;-2.00;100.00;98772.84;5058176;28;20031;-71
2022/01/16 07:48:48;;;;;;;104.45;38.88;;;;;;;-1.91;100.00;98766.34;5054818;28;20049;-72
2022/01/16 07:51:13;;;;;;;127.70;41.13;;;;;;;-1.95;100.00;98760.53;5054101;28;20029;-72
2022/01/16 07:53:39;;;;;;;106.35;39.10;;;;;;;-1.95;100.00;98773.94;5052339;28;20055;-71
2022/01/16 07:56:04;;;;;;;118.63;40.03;;;;;;;-1.94;100.00;98772.09;5053139;28;20048;-72
2022/01/16 07:58:30;;;;;;;140.68;42.95;;;;;;;-1.97;100.00;98767.94;5053334;28;20029;-71
2022/01/16 08:00:58;;;;;;;112.72;44.97;;;;;;;-1.94;100.00;98761.38;5051872;28;20067;-71
2022/01/16 08:03:24;;;;;;;127.53;45.95;;;;;;;-1.94;100.00;98758.69;5053276;28;20044;-71
2022/01/16 08:05:49;;;;;;;110.40;40.83;;;;;;;-1.99;100.00;98753.06;5052049;28;20021;-71
2022/01/16 08:08:15;;;;;;;200.85;42.40;;;;;;;-2.07;100.00;98755.91;5051878;28;20032;-71
2022/01/16 08:10:40;;;;;;;163.90;40.15;;;;;;;-1.95;100.00;98765.91;5053450;28;20493;-71
2022/01/16 08:13:06;;;;;;;124.72;37.63;;;;;;;-1.87;100.00;98762.22;5053125;28;20028;-71
2022/01/16 08:15:31;;;;;;;141.45;40.97;;;;;;;-1.86;100.00;98761.22;5040138;28;20056;-71
2022/01/16 08:17:57;;;;;;;93.97;39.83;;;;;;;-1.89;100.00;98758.94;5033007;28;20103;-72
2022/01/16 08:20:22;;;;;;;114.00;44.35;;;;;;;-1.71;100.00;98757.38;5046353;28;20049;-71
2022/01/16 08:22:48;;;;;;;102.35;44.55;;;;;;;-1.80;100.00;98755.06;5051885;28;20470;-71
2022/01/16 08:25:13;;;;;;;101.90;39.63;;;;;;;-1.80;100.00;98747.03;5052991;28;20053;-72
2022/01/16 08:27:39;;;;;;;107.38;38.55;;;;;;;-1.75;100.00;98752.59;5051533;28;20059;-72
2022/01/16 08:30:06;;;;;;;100.10;40.13;;;;;;;-1.83;100.00;98747.41;5052513;28;20482;-72
2022/01/16 08:32:32;;;;;;;107.07;41.33;;;;;;;-1.81;100.00;98746.19;5052456;28;20029;-70
2022/01/16 08:34:58;;;;;;;148.43;41.22;;;;;;;-1.78;100.00;98750.31;5051489;28;20029;-72
2022/01/16 08:37:23;;;;;;;174.85;41.13;;;;;;;-1.70;100.00;98753.69;5052623;28;20078;-70
2022/01/16 08:39:49;;;;;;;173.32;42.67;;;;;;;-1.77;100.00;98746.63;5052708;28;20037;-73
2022/01/16 08:42:15;;;;;;;136.63;42.90;;;;;;;-1.78;100.00;98744.97;5052727;28;20032;-71
2022/01/16 08:44:42;;;;;;;203.55;46.45;;;;;;;-1.74;100.00;98741.69;5051866;28;20059;-71
2022/01/16 08:47:08;;;;;;;274.80;48.90;;;;;;;-1.67;100.00;98747.09;5043141;28;20028;-70
2022/01/16 08:49:34;;;;;;;139.10;45.95;;;;;;;-1.56;100.00;98735.81;5047622;28;20080;-72
2022/01/16 08:52:00;;;;;;;155.85;45.35;;;;;;;-1.70;100.00;98736.78;5051447;28;20466;-70
2022/01/16 08:54:25;;;;;;;139.73;45.30;;;;;;;-1.47;100.00;98731.13;5050964;28;20025;-71
2022/01/16 08:56:50;;;;;;;144.27;46.17;;;;;;;-1.48;100.00;98724.09;5051079;28;20039;-71
2022/01/16 08:59:16;;;;;;;211.25;46.78;;;;;;;-1.50;100.00;98740.38;5050854;28;20028;-73
2022/01/16 09:01:41;;;;;;;170.00;46.65;;;;;;;-1.48;100.00;98735.66;5050282;28;20025;-74
2022/01/16 09:04:07;;;;;;;181.98;47.42;;;;;;;-1.58;100.00;98729.81;5048482;28;20378;-72
2022/01/16 09:06:32;;;;;;;143.63;45.97;;;;;;;-1.37;100.00;98734.22;5048956;28;20029;-68
2022/01/16 09:08:58;;;;;;;143.10;44.55;;;;;;;-1.21;100.00;98717.78;5045991;28;20079;-72
2022/01/16 09:11:25;;;;;;;125.85;43.08;;;;;;;-1.13;100.00;98729.16;5049243;28;20025;-72
2022/01/16 09:13:52;;;;;;;122.35;43.17;;;;;;;-1.00;100.00;98725.69;5047021;28;20782;-72
2022/01/16 09:16:19;;;;;;;142.02;48.08;;;;;;;-1.09;100.00;98718.84;5045824;28;20068;-71
2022/01/16 09:18:45;;;;;;;172.60;47.35;;;;;;;-1.39;100.00;98717.53;5050629;28;20055;-72
2022/01/16 09:21:17;;;;;;;159.93;47.47;;;;;;;-1.37;100.00;98723.50;5050314;28;20037;-72
2022/01/16 09:23:48;;;;;;;126.72;48.08;;;;;;;-1.16;100.00;98728.75;5048011;28;20386;-73
2022/01/16 09:26:13;;;;;;;117.18;47.88;;;;;;;-1.16;100.00;98724.19;5050506;28;20544;-73
2022/01/16 09:28:41;;;;;;;132.38;45.65;;;;;;;-1.02;100.00;98718.88;5050425;28;20029;-72
2022/01/16 09:31:06;;;;;;;142.65;48.85;;;;;;;-1.07;100.00;98717.63;5047410;28;20036;-73
2022/01/16 09:33:32;;;;;;;114.07;46.22;;;;;;;-0.99;100.00;98718.47;5050721;28;20033;-73
2022/01/16 09:35:58;;;;;;;170.77;50.00;;;;;;;-1.02;100.00;98708.97;5050178;28;20021;-74
2022/01/16 09:38:23;;;;;;;148.20;48.72;;;;;;;-0.89;100.00;98729.66;5043686;28;20067;-71
2022/01/16 09:40:49;;;;;;;128.10;46.05;;;;;;;-0.79;100.00;98725.56;5044663;28;20018;-72
2022/01/16 09:43:16;;;;;;;161.10;47.60;;;;;;;-0.95;100.00;98714.34;5041450;28;20025;-74
2022/01/16 09:45:42;;;;;;;156.80;49.55;;;;;;;-0.99;100.00;98713.09;5052185;28;20161;-74
2022/01/16 09:48:07;;;;;;;155.77;48.17;;;;;;;-0.82;100.00;98700.97;5050290;28;20036;-72
2022/01/16 09:50:33;;;;;;;134.45;46.25;;;;;;;-0.79;100.00;98713.97;5050002;28;21534;-72
2022/01/16 09:52:59;;;;;;;184.27;49.40;;;;;;;-0.95;100.00;98722.41;5049806;28;20024;-72
2022/01/16 09:55:25;;;;;;;115.45;47.97;;;;;;;-0.81;100.00;98703.44;5050685;28;20049;-72
2022/01/16 09:57:54;;;;;;;173.63;47.35;;;;;;;-0.84;100.00;98705.69;5049697;28;20040;-72
2022/01/16 10:00:23;;;;;;;153.45;47.42;;;;;;;-0.66;100.00;98706.75;5048954;28;20497;-72
2022/01/16 10:02:49;;;;;;;137.43;48.13;;;;;;;-0.49;100.00;98693.75;5049450;28;20524;-72
2022/01/16 10:05:36;;;;;;;127.00;45.65;;;;;;;-0.40;100.00;98691.66;5049153;28;20025;-73
2022/01/16 10:08:05;;;;;;;187.10;49.90;;;;;;;-0.57;100.00;98680.53;5046792;28;20044;-72
2022/01/16 10:10:37;;;;;;;193.77;50.90;;;;;;;-0.95;100.00;98677.59;5051618;28;20025;-73
2022/01/16 10:13:21;;;;;;;125.72;49.15;;;;;;;-0.72;100.00;98677.22;5043967;28;20024;-72
2022/01/16 10:15:57;;;;;;;165.45;51.20;;;;;;;-0.59;100.00;98669.97;5043728;28;20115;-74
2022/01/16 10:18:34;;;;;;;145.90;51.65;;;;;;;-0.30;100.00;98663.34;5048697;28;20062;-73
2022/01/16 10:21:00;;;;;;;102.13;44.83;;;;;;;-0.25;100.00;98655.47;5049577;28;20025;-73
2022/01/16 10:23:26;;;;;;;109.63;47.42;;;;;;;-0.27;100.00;98659.41;5044604;28;20041;-73
2022/01/16 10:25:51;;;;;;;115.50;51.05;;;;;;;-0.18;100.00;98653.63;5058869;28;20029;-72
2022/01/16 10:28:17;;;;;;;106.97;48.80;;;;;;;-0.06;100.00;98638.50;5057130;28;20115;-72
2022/01/16 10:30:49;;;;;;;119.53;49.30;;;;;;;-0.14;100.00;98633.34;5054428;28;20416;-71
2022/01/16 10:33:19;;;;;;;123.40;49.72;;;;;;;-0.24;100.00;98632.13;5062245;28;20767;-71
2022/01/16 10:35:48;;;;;;;124.32;50.97;;;;;;;-0.38;100.00;98620.59;5053302;28;20058;-71
2022/01/16 10:38:22;;;;;;;119.28;49.28;;;;;;;-0.37;100.00;98614.16;5061487;28;20029;-73
2022/01/16 10:40:50;;;;;;;113.60;49.83;;;;;;;-0.24;100.00;98616.84;5055672;28;20032;-71
2022/01/16 10:43:40;;;;;;;132.50;52.45;;;;;;;-0.15;100.00;98618.25;5065588;28;20111;-71
2022/01/16 10:46:06;;;;;;;142.57;53.85;;;;;;;-0.13;100.00;98608.13;5043268;28;20171;-72
2022/01/16 10:48:32;;;;;;;137.32;54.35;;;;;;;-0.04;100.00;98611.41;5059005;28;20043;-73
2022/01/16 10:50:59;;;;;;;133.90;57.45;;;;;;;-0.05;100.00;98605.22;5055117;28;20386;-72
2022/01/16 10:53:32;;;;;;;137.85;55.10;;;;;;;0.09;100.00;98605.16;5064820;28;20044;-72
2022/01/16 10:55:59;;;;;;;128.18;53.45;;;;;;;0.11;100.00;98598.53;5047054;28;20143;-74
2022/01/16 10:58:28;;;;;;;128.25;52.17;;;;;;;0.01;100.00;98590.09;5062245;28;20024;-74
2022/01/16 11:01:03;;;;;;;135.20;55.58;;;;;;;0.02;100.00;98586.38;5056329;28;20051;-76
2022/01/16 11:03:37;;;;;;;127.95;51.15;;;;;;;0.09;100.00;98580.97;5049474;28;20032;-73
2022/01/16 11:06:02;;;;;;;123.53;54.08;;;;;;;0.08;100.00;98577.44;5050681;28;20040;-74
2022/01/16 11:08:28;;;;;;;129.30;54.15;;;;;;;0.14;100.00;98578.44;5050211;28;20025;-76
2022/01/16 11:10:59;;;;;;;153.50;54.97;;;;;;;0.17;100.00;98580.72;5041551;28;20029;-75
2022/01/16 11:13:34;;;;;;;127.63;50.72;;;;;;;0.40;100.00;98581.84;5046390;28;20051;-73
2022/01/16 11:16:03;;;;;;;134.23;54.00;;;;;;;0.32;100.00;98579.41;5066314;28;20154;-74
2022/01/16 11:18:35;;;;;;;118.70;50.10;;;;;;;0.26;100.00;98574.06;5063386;28;20027;-71
2022/01/16 11:24:01;;;;;;;120.28;54.95;;;;;;;0.48;100.00;98580.78;5064226;28;20045;-71
2022/01/16 11:26:27;;;;;;;125.68;51.33;;;;;;;0.55;100.00;98573.50;5065596;28;20420;-72
2022/01/16 11:28:54;;;;;;;124.05;53.50;;;;;;;0.51;100.00;98569.56;5066562;28;20028;-71
2022/01/16 11:31:20;;;;;;;142.40;56.47;;;;;;;0.52;100.00;98558.59;5064337;28;20020;-72
2022/01/16 11:33:47;;;;;;;128.20;53.45;;;;;;;0.80;100.00;98562.75;5067166;28;20039;-71
2022/01/16 11:36:19;;;;;;;117.80;49.60;;;;;;;0.66;100.00;98563.91;5067344;28;20028;-71
2022/01/16 11:38:51;;;;;;;117.35;50.65;;;;;;;0.44;100.00;98561.53;5042808;28;20022;-71
2022/01/16 11:41:23;;;;;;;140.52;57.17;;;;;;;0.36;100.00;98560.97;5033831;28;20036;-72
2022/01/16 11:43:51;;;;;;;127.78;54.13;;;;;;;0.34;100.00;98560.38;5033584;28;20156;-73